Time;durP1;ratioP1;P1;durP2;ratioP2;P2;SDS_P1;SDS_P2;PMS_P1;PMS_P2;Temp;Humidity;BMP_temperature;BMP_pressure;BME280_temperature;BME280_humidity;BME280_pressure;Samples;Min_cycle;Max_cycle;Signal;HPM_P1;HPM_P2
2021/06/01 00:00:23;;;;;;;;;;;;;;;-145.83;100.00;58908.13;3453493;28;19944;-45
2021/06/01 00:02:04;;;;;;;;;;;;;;;-145.83;100.00;58908.13;3457213;28;19961;-45
2021/06/01 00:03:46;;;;;;;;;;;;;;;-145.83;100.00;58908.13;3452182;28;20294;-44
2021/06/01 00:05:27;;;;;;;;;;;;;;;-145.83;100.00;58908.13;3454924;28;19952;-41
2021/06/01 00:07:09;;;;;;;;;;;;;;;-145.83;100.00;58908.13;3455688;28;20418;-40
2021/06/01 00:08:50;;;;;;;;;;;;;;;-145.83;100.00;58908.13;3456566;28;19937;-40
2021/06/01 00:10:32;;;;;;;;;;;;;;;-145.83;100.00;58908.13;3456620;28;19975;-41
2021/06/01 00:12:13;;;;;;;;;;;;;;;-145.83;100.00;58908.13;3453853;28;19973;-41
2021/06/01 00:13:54;;;;;;;;;;;;;;;-145.83;100.00;58908.13;3455634;28;19983;-40
2021/06/01 00:15:35;;;;;;;;;;;;;;;-145.83;100.00;58908.13;3452795;28;19965;-40
2021/06/01 00:17:16;;;;;;;;;;;;;;;-145.83;100.00;58908.13;3455172;28;20211;-40
2021/06/01 00:18:58;;;;;;;;;;;;;;;-145.83;100.00;58908.13;3455192;28;19929;-40
2021/06/01 00:20:39;;;;;;;;;;;;;;;-145.83;100.00;58908.13;3454783;28;19937;-40
2021/06/01 00:22:21;;;;;;;;;;;;;;;-145.83;100.00;58908.13;3455595;28;20474;-40
2021/06/01 00:24:02;;;;;;;;;;;;;;;-145.83;100.00;58908.13;3453289;28;19929;-40
2021/06/01 00:25:43;;;;;;;;;;;;;;;-145.83;100.00;58908.13;3456737;28;19929;-40
2021/06/01 00:27:26;;;;;;;;;;;;;;;-145.83;100.00;58908.13;3453171;28;19930;-41
2021/06/01 00:29:07;;;;;;;;;;;;;;;-145.83;100.00;58908.13;3456323;28;20347;-40
2021/06/01 00:30:49;;;;;;;;;;;;;;;-145.83;100.00;58908.13;3453839;28;19936;-40
2021/06/01 00:32:30;;;;;;;;;;;;;;;-145.83;100.00;58908.13;3454803;28;20041;-41
2021/06/01 00:34:11;;;;;;;;;;;;;;;-145.83;100.00;58908.13;3456531;28;19936;-40
2021/06/01 00:35:52;;;;;;;;;;;;;;;-145.83;100.00;58908.13;3451498;28;19977;-40
2021/06/01 00:37:34;;;;;;;;;;;;;;;-145.83;100.00;58908.13;3456495;28;19929;-40
2021/06/01 00:39:15;;;;;;;;;;;;;;;-145.83;100.00;58908.13;3454391;28;19973;-40
2021/06/01 00:40:57;;;;;;;;;;;;;;;-145.83;100.00;58908.13;3456227;28;19968;-45
2021/06/01 00:42:38;;;;;;;;;;;;;;;-145.83;100.00;58908.13;3454623;28;20012;-40
2021/06/01 00:44:19;;;;;;;;;;;;;;;-145.83;100.00;58908.13;3454616;28;20465;-40
2021/06/01 00:46:00;;;;;;;;;;;;;;;-145.83;100.00;58908.13;3456419;28;20345;-40
2021/06/01 00:47:42;;;;;;;;;;;;;;;-145.83;100.00;58908.13;3454028;28;20403;-46
2021/06/01 00:49:23;;;;;;;;;;;;;;;-145.83;100.00;58908.13;3456431;28;19964;-45
2021/06/01 00:51:04;;;;;;;;;;;;;;;-145.83;100.00;58908.13;3454164;28;19936;-46
2021/06/01 00:52:46;;;;;;;;;;;;;;;-145.83;100.00;58908.13;3456058;28;20330;-45
2021/06/01 00:54:28;;;;;;;;;;;;;;;-145.83;100.00;58908.13;3454638;28;19929;-45
2021/06/01 00:56:09;;;;;;;;;;;;;;;-145.83;100.00;58908.13;3454724;28;20045;-45
2021/06/01 00:57:50;;;;;;;;;;;;;;;-145.83;100.00;58908.13;3456089;28;20429;-45
2021/06/01 00:59:32;;;;;;;;;;;;;;;-145.83;100.00;58908.13;3452802;28;19929;-40
2021/06/01 01:01:19;;;;;;;;;;;;;;;-145.83;100.00;58908.13;3456413;28;19934;-40
2021/06/01 01:03:00;;;;;;;;;;;;;;;-145.83;100.00;58908.13;3454188;28;19934;-40
2021/06/01 01:04:41;;;;;;;;;;;;;;;-145.83;100.00;58908.13;3455113;28;20417;-40
2021/06/01 01:06:33;;;;;;;;;;;;;;;-145.83;100.00;58908.13;3453911;28;19933;-40
2021/06/01 01:08:21;;;;;;;;;;;;;;;-145.83;100.00;58908.13;3453252;28;19995;-40
2021/06/01 01:10:03;;;;;;;;;;;;;;;-145.83;100.00;58908.13;3456329;28;19968;-40
2021/06/01 01:11:49;;;;;;;;;;;;;;;-145.83;100.00;58908.13;3452855;28;20359;-40
2021/06/01 01:13:31;;;;;;;;;;;;;;;-145.83;100.00;58908.13;3454335;28;19940;-40
2021/06/01 01:15:13;;;;;;;;;;;;;;;-145.83;100.00;58908.13;3454675;28;20328;-40
2021/06/01 01:16:57;;;;;;;;;;;;;;;-145.83;100.00;58908.13;3454310;28;19929;-40
2021/06/01 01:18:39;;;;;;;;;;;;;;;-145.83;100.00;58908.13;3456211;28;20088;-40
2021/06/01 01:20:24;;;;;;;;;;;;;;;-145.83;100.00;58908.13;3453919;28;19968;-40
2021/06/01 01:22:05;;;;;;;;;;;;;;;-145.83;100.00;58908.13;3456264;28;19965;-41
2021/06/01 01:23:55;;;;;;;;;;;;;;;-145.83;100.00;58908.13;3454093;28;19972;-40
2021/06/01 01:25:38;;;;;;;;;;;;;;;-145.83;100.00;58908.13;3455048;28;19996;-40
2021/06/01 01:27:26;;;;;;;;;;;;;;;-145.83;100.00;58908.13;3455507;28;19929;-44
2021/06/01 01:29:12;;;;;;;;;;;;;;;-145.83;100.00;58908.13;3452702;28;20298;-40
2021/06/01 01:30:56;;;;;;;;;;;;;;;-145.83;100.00;58908.13;3442836;28;19941;-40
2021/06/01 01:32:41;;;;;;;;;;;;;;;-145.83;100.00;58908.13;3449310;28;19936;-45
2021/06/01 01:34:24;;;;;;;;;;;;;;;-145.83;100.00;58908.13;3455831;28;20019;-44
2021/06/01 01:36:07;;;;;;;;;;;;;;;-145.83;100.00;58908.13;3454177;28;20374;-45
2021/06/01 01:37:49;;;;;;;;;;;;;;;-145.83;100.00;58908.13;3452724;28;19930;-45
2021/06/01 01:39:34;;;;;;;;;;;;;;;-145.83;100.00;58908.13;3455657;28;19929;-46
2021/06/01 01:41:16;;;;;;;;;;;;;;;-145.83;100.00;58908.13;3452495;28;20046;-44
2021/06/01 01:43:02;;;;;;;;;;;;;;;-145.83;100.00;58908.13;3455967;28;19944;-46
2021/06/01 01:44:49;;;;;;;;;;;;;;;-145.83;100.00;58908.13;3452513;28;19940;-40
2021/06/01 01:46:51;;;;;;;;;;;;;;;-145.83;100.00;58908.13;3443843;28;19976;-40
2021/06/01 01:50:32;;;;;;;;;;;;;;;-145.83;100.00;58908.13;3453959;28;19961;-40
2021/06/01 01:52:14;;;;;;;;;;;;;;;-145.83;100.00;58908.13;3456000;28;19973;-46
2021/06/01 01:53:57;;;;;;;;;;;;;;;-145.83;100.00;58908.13;3454414;28;19929;-46
2021/06/01 01:55:39;;;;;;;;;;;;;;;-145.83;100.00;58908.13;3452626;28;20356;-47
2021/06/01 01:57:20;;;;;;;;;;;;;;;-145.83;100.00;58908.13;3455709;28;20049;-46
2021/06/01 01:59:02;;;;;;;;;;;;;;;-145.83;100.00;58908.13;3453630;28;20473;-45
2021/06/01 02:00:44;;;;;;;;;;;;;;;-145.83;100.00;58908.13;3455875;28;20525;-47
2021/06/01 02:02:25;;;;;;;;;;;;;;;-145.83;100.00;58908.13;3453198;28;20466;-46
2021/06/01 02:04:06;;;;;;;;;;;;;;;-145.83;100.00;58908.13;3455511;28;19965;-46
2021/06/01 02:05:49;;;;;;;;;;;;;;;-145.83;100.00;58908.13;3453583;28;20415;-40
2021/06/01 02:07:31;;;;;;;;;;;;;;;-145.83;100.00;58908.13;3452943;28;19968;-40
2021/06/01 02:09:12;;;;;;;;;;;;;;;-145.83;100.00;58908.13;3456530;28;19929;-40
2021/06/01 02:10:54;;;;;;;;;;;;;;;-145.83;100.00;58908.13;3453545;28;20030;-40
2021/06/01 02:12:35;;;;;;;;;;;;;;;-145.83;100.00;58908.13;3456153;28;19976;-40
2021/06/01 02:14:17;;;;;;;;;;;;;;;-145.83;100.00;58908.13;3452019;28;20139;-41
2021/06/01 02:15:58;;;;;;;;;;;;;;;-145.83;100.00;58908.13;3455188;28;19937;-40
2021/06/01 02:17:39;;;;;;;;;;;;;;;-145.83;100.00;58908.13;3454505;28;19999;-45
2021/06/01 02:19:21;;;;;;;;;;;;;;;-145.83;100.00;58908.13;3452778;28;20323;-40
2021/06/01 02:21:05;;;;;;;;;;;;;;;-145.83;100.00;58908.13;3455667;28;19968;-45
2021/06/01 02:24:53;;;;;;;;;;;;;;;-145.83;100.00;58908.13;3453986;28;20480;-46
2021/06/01 02:26:37;;;;;;;;;;;;;;;-145.83;100.00;58908.13;3454129;28;20371;-40
2021/06/01 02:28:21;;;;;;;;;;;;;;;-145.83;100.00;58908.13;3453221;28;20395;-40
2021/06/01 02:30:05;;;;;;;;;;;;;;;-145.83;100.00;58908.13;3454680;28;19976;-40
2021/06/01 02:31:47;;;;;;;;;;;;;;;-145.83;100.00;58908.13;3452982;28;20398;-41
2021/06/01 02:33:30;;;;;;;;;;;;;;;-145.83;100.00;58908.13;3456003;28;19929;-40
2021/06/01 02:35:12;;;;;;;;;;;;;;;-145.83;100.00;58908.13;3453139;28;20363;-41
2021/06/01 02:36:54;;;;;;;;;;;;;;;-145.83;100.00;58908.13;3451972;28;19940;-41
2021/06/01 02:38:36;;;;;;;;;;;;;;;-145.83;100.00;58908.13;3454619;28;20035;-40
2021/06/01 02:40:18;;;;;;;;;;;;;;;-145.83;100.00;58908.13;3452195;28;19936;-40
2021/06/01 02:42:01;;;;;;;;;;;;;;;-145.83;100.00;58908.13;3455387;28;19980;-45
2021/06/01 02:43:43;;;;;;;;;;;;;;;-145.83;100.00;58908.13;3452212;28;19965;-45
2021/06/01 02:45:24;;;;;;;;;;;;;;;-145.83;100.00;58908.13;3455394;28;19975;-47
2021/06/01 02:47:06;;;;;;;;;;;;;;;-145.83;100.00;58908.13;3453151;28;20038;-45
2021/06/01 02:48:48;;;;;;;;;;;;;;;-145.83;100.00;58908.13;3453840;28;19936;-45
2021/06/01 02:50:29;;;;;;;;;;;;;;;-145.83;100.00;58908.13;3454926;28;19984;-45
2021/06/01 02:52:12;;;;;;;;;;;;;;;-145.83;100.00;58908.13;3453024;28;20440;-45
2021/06/01 02:53:54;;;;;;;;;;;;;;;-145.83;100.00;58908.13;3455337;28;19969;-45
2021/06/01 02:55:35;;;;;;;;;;;;;;;-145.83;100.00;58908.13;3452458;28;19929;-43
2021/06/01 02:57:17;;;;;;;;;;;;;;;-145.83;100.00;58908.13;3455208;28;19972;-43
2021/06/01 02:59:02;;;;;;;;;;;;;;;-145.83;100.00;58908.13;3453596;28;19973;-43
2021/06/01 03:00:43;;;;;;;;;;;;;;;-145.83;100.00;58908.13;3452286;28;19929;-43
2021/06/01 03:02:26;;;;;;;;;;;;;;;-145.83;100.00;58908.13;3454015;28;19929;-43
2021/06/01 03:04:07;;;;;;;;;;;;;;;-145.83;100.00;58908.13;3453125;28;19936;-44
2021/06/01 03:05:49;;;;;;;;;;;;;;;-145.83;100.00;58908.13;3455094;28;20418;-43
2021/06/01 03:07:30;;;;;;;;;;;;;;;-145.83;100.00;58908.13;3452908;28;19949;-45
2021/06/01 03:09:12;;;;;;;;;;;;;;;-145.83;100.00;58908.13;3455489;28;19983;-44
2021/06/01 03:10:54;;;;;;;;;;;;;;;-145.83;100.00;58908.13;3452133;28;19956;-44
2021/06/01 03:12:45;;;;;;;;;;;;;;;-145.83;100.00;58908.13;3451710;28;20423;-45
2021/06/01 03:14:26;;;;;;;;;;;;;;;-145.83;100.00;58908.13;3453784;28;20024;-44
2021/06/01 03:16:08;;;;;;;;;;;;;;;-145.83;100.00;58908.13;3451748;28;20379;-45
2021/06/01 03:17:49;;;;;;;;;;;;;;;-145.83;100.00;58908.13;3455695;28;20059;-43
2021/06/01 03:19:30;;;;;;;;;;;;;;;-145.83;100.00;58908.13;3451693;28;19977;-44
2021/06/01 03:21:12;;;;;;;;;;;;;;;-145.83;100.00;58908.13;3454999;28;19937;-48
2021/06/01 03:22:53;;;;;;;;;;;;;;;-145.83;100.00;58908.13;3453025;28;20383;-47
2021/06/01 03:24:35;;;;;;;;;;;;;;;-145.83;100.00;58908.13;3453483;28;20368;-47
2021/06/01 03:26:16;;;;;;;;;;;;;;;-145.83;100.00;58908.13;3454799;28;19949;-47
2021/06/01 03:27:58;;;;;;;;;;;;;;;-145.83;100.00;58908.13;3450708;28;19983;-49
2021/06/01 03:29:39;;;;;;;;;;;;;;;-145.83;100.00;58908.13;3455153;28;20311;-48
2021/06/01 03:31:20;;;;;;;;;;;;;;;-145.83;100.00;58908.13;3455285;28;19973;-44
2021/06/01 03:33:02;;;;;;;;;;;;;;;-145.83;100.00;58908.13;3457223;28;19933;-46
2021/06/01 03:34:43;;;;;;;;;;;;;;;-145.83;100.00;58908.13;3455891;28;19949;-46
2021/06/01 03:36:24;;;;;;;;;;;;;;;-145.83;100.00;58908.13;3453234;28;19981;-48
2021/06/01 03:38:06;;;;;;;;;;;;;;;-145.83;100.00;58908.13;3450210;28;20410;-47
2021/06/01 03:39:47;;;;;;;;;;;;;;;-145.83;100.00;58908.13;3449597;28;20335;-44
2021/06/01 03:41:30;;;;;;;;;;;;;;;-145.83;100.00;58908.13;3457719;28;20391;-47
2021/06/01 03:43:11;;;;;;;;;;;;;;;-145.83;100.00;58908.13;3456182;28;19960;-47
2021/06/01 03:44:52;;;;;;;;;;;;;;;-145.83;100.00;58908.13;3457443;28;19933;-47
2021/06/01 03:46:33;;;;;;;;;;;;;;;-145.83;100.00;58908.13;3455978;28;20720;-47
2021/06/01 03:48:14;;;;;;;;;;;;;;;-145.83;100.00;58908.13;3453171;28;19930;-46
2021/06/01 03:49:57;;;;;;;;;;;;;;;-145.83;100.00;58908.13;3457357;28;19930;-44
2021/06/01 03:51:38;;;;;;;;;;;;;;;-145.83;100.00;58908.13;3456238;28;19968;-47
2021/06/01 03:53:20;;;;;;;;;;;;;;;-145.83;100.00;58908.13;3457518;28;20375;-46
2021/06/01 03:55:01;;;;;;;;;;;;;;;-145.83;100.00;58908.13;3454406;28;19968;-45
2021/06/01 03:56:42;;;;;;;;;;;;;;;-145.83;100.00;58908.13;3457139;28;19945;-45
2021/06/01 03:58:23;;;;;;;;;;;;;;;-145.83;100.00;58908.13;3455544;28;19940;-47
2021/06/01 04:00:05;;;;;;;;;;;;;;;-145.83;100.00;58908.13;3454183;28;20454;-48
2021/06/01 04:01:46;;;;;;;;;;;;;;;-145.83;100.00;58908.13;3457636;28;19971;-47
2021/06/01 04:03:28;;;;;;;;;;;;;;;-145.83;100.00;58908.13;3455837;28;19936;-46
2021/06/01 04:05:09;;;;;;;;;;;;;;;-145.83;100.00;58908.13;3458368;28;19929;-47
2021/06/01 04:06:50;;;;;;;;;;;;;;;-145.83;100.00;58908.13;3455226;28;19930;-44
2021/06/01 04:08:32;;;;;;;;;;;;;;;-145.83;100.00;58908.13;3458616;28;19929;-47
2021/06/01 04:10:14;;;;;;;;;;;;;;;-145.83;100.00;58908.13;3454937;28;20318;-44
2021/06/01 04:11:56;;;;;;;;;;;;;;;-145.83;100.00;58908.13;3455228;28;19983;-48
2021/06/01 04:13:40;;;;;;;;;;;;;;;-145.83;100.00;58908.13;3453486;28;19936;-48
2021/06/01 04:15:22;;;;;;;;;;;;;;;-145.83;100.00;58908.13;3448372;28;19929;-45
2021/06/01 04:17:03;;;;;;;;;;;;;;;-145.83;100.00;58908.13;3457317;28;20310;-45
2021/06/01 04:18:45;;;;;;;;;;;;;;;-145.83;100.00;58908.13;3455802;28;19930;-45
2021/06/01 04:20:27;;;;;;;;;;;;;;;-145.83;100.00;58908.13;3457944;28;20395;-45
2021/06/01 04:22:08;;;;;;;;;;;;;;;-145.83;100.00;58908.13;3454246;28;20346;-45
2021/06/01 04:23:51;;;;;;;;;;;;;;;-145.83;100.00;58908.13;3453150;28;20029;-45
2021/06/01 04:25:32;;;;;;;;;;;;;;;-145.83;100.00;58908.13;3457435;28;19930;-47
2021/06/01 04:27:13;;;;;;;;;;;;;;;-145.83;100.00;58908.13;3455151;28;19979;-45
2021/06/01 04:28:54;;;;;;;;;;;;;;;-145.83;100.00;58908.13;3458513;28;19930;-47
2021/06/01 04:30:35;;;;;;;;;;;;;;;-145.83;100.00;58908.13;3455187;28;19940;-46
2021/06/01 04:32:17;;;;;;;;;;;;;;;-145.83;100.00;58908.13;3456640;28;20306;-45
2021/06/01 04:33:58;;;;;;;;;;;;;;;-145.83;100.00;58908.13;3454059;28;20447;-47
2021/06/01 04:35:39;;;;;;;;;;;;;;;-145.83;100.00;58908.13;3455394;28;19983;-47
2021/06/01 04:37:21;;;;;;;;;;;;;;;-145.83;100.00;58908.13;3455875;28;19984;-45
2021/06/01 04:39:03;;;;;;;;;;;;;;;-145.83;100.00;58908.13;3452904;28;19929;-44
2021/06/01 04:40:44;;;;;;;;;;;;;;;-145.83;100.00;58908.13;3456996;28;19968;-47
2021/06/01 04:42:25;;;;;;;;;;;;;;;-145.83;100.00;58908.13;3454286;28;19929;-45
2021/06/01 04:44:07;;;;;;;;;;;;;;;-145.83;100.00;58908.13;3457404;28;19949;-45
2021/06/01 04:45:48;;;;;;;;;;;;;;;-145.83;100.00;58908.13;3455014;28;20023;-46
2021/06/01 04:47:29;;;;;;;;;;;;;;;-145.83;100.00;58908.13;3455395;28;19964;-46
2021/06/01 04:49:11;;;;;;;;;;;;;;;-145.83;100.00;58908.13;3457168;28;19961;-47
2021/06/01 04:50:52;;;;;;;;;;;;;;;-145.83;100.00;58908.13;3454009;28;19992;-46
2021/06/01 04:52:34;;;;;;;;;;;;;;;-145.83;100.00;58908.13;3456754;28;19937;-44
2021/06/01 04:54:16;;;;;;;;;;;;;;;-145.83;100.00;58908.13;3455328;28;19936;-47
2021/06/01 04:55:57;;;;;;;;;;;;;;;-145.83;100.00;58908.13;3457304;28;19961;-45
2021/06/01 04:57:38;;;;;;;;;;;;;;;-145.83;100.00;58908.13;3454365;28;19930;-45
2021/06/01 04:59:19;;;;;;;;;;;;;;;-145.83;100.00;58908.13;3455930;28;20019;-45
2021/06/01 05:01:01;;;;;;;;;;;;;;;-145.83;100.00;58908.13;3457141;28;19929;-45
2021/06/01 05:02:42;;;;;;;;;;;;;;;-145.83;100.00;58908.13;3454986;28;19930;-47
2021/06/01 05:04:23;;;;;;;;;;;;;;;-145.83;100.00;58908.13;3457474;28;20019;-46
2021/06/01 05:06:04;;;;;;;;;;;;;;;-145.83;100.00;58908.13;3454445;28;19929;-46
2021/06/01 05:07:45;;;;;;;;;;;;;;;-145.83;100.00;58908.13;3457667;28;19980;-49
2021/06/01 05:09:27;;;;;;;;;;;;;;;-145.83;100.00;58908.13;3452718;28;19937;-47
2021/06/01 05:11:09;;;;;;;;;;;;;;;-145.83;100.00;58908.13;3454482;28;19929;-45
2021/06/01 05:12:50;;;;;;;;;;;;;;;-145.83;100.00;58908.13;3456021;28;19980;-45
2021/06/01 05:14:31;;;;;;;;;;;;;;;-145.83;100.00;58908.13;3453355;28;20450;-46
2021/06/01 05:16:13;;;;;;;;;;;;;;;-145.83;100.00;58908.13;3456463;28;19929;-46
2021/06/01 05:17:55;;;;;;;;;;;;;;;-145.83;100.00;58908.13;3453800;28;19933;-47
2021/06/01 05:19:36;;;;;;;;;;;;;;;-145.83;100.00;58908.13;3456885;28;19944;-47
2021/06/01 05:21:17;;;;;;;;;;;;;;;-145.83;100.00;58908.13;3455334;28;20298;-46
2021/06/01 05:22:59;;;;;;;;;;;;;;;-145.83;100.00;58908.13;3456491;28;20299;-46
2021/06/01 05:24:41;;;;;;;;;;;;;;;-145.83;100.00;58908.13;3457957;28;19929;-46
2021/06/01 05:26:22;;;;;;;;;;;;;;;-145.83;100.00;58908.13;3455220;28;19929;-46
2021/06/01 05:28:04;;;;;;;;;;;;;;;-145.83;100.00;58908.13;3456624;28;20023;-46
2021/06/01 05:29:50;;;;;;;;;;;;;;;-145.83;100.00;58908.13;3454498;28;19937;-47
2021/06/01 05:31:41;;;;;;;;;;;;;;;-145.83;100.00;58908.13;3443514;28;19934;-46
2021/06/01 05:33:24;;;;;;;;;;;;;;;-145.83;100.00;58908.13;3455966;28;20300;-46
2021/06/01 05:35:16;;;;;;;;;;;;;;;-145.83;100.00;58908.13;3454808;28;19977;-47
2021/06/01 05:36:57;;;;;;;;;;;;;;;-145.83;100.00;58908.13;3457024;28;19991;-46
2021/06/01 05:38:39;;;;;;;;;;;;;;;-145.83;100.00;58908.13;3454938;28;20411;-46
2021/06/01 05:40:20;;;;;;;;;;;;;;;-145.83;100.00;58908.13;3456143;28;20163;-47
2021/06/01 05:42:02;;;;;;;;;;;;;;;-145.83;100.00;58908.13;3454725;28;20397;-46
2021/06/01 05:43:43;;;;;;;;;;;;;;;-145.83;100.00;58908.13;3454049;28;19934;-47
2021/06/01 05:45:24;;;;;;;;;;;;;;;-145.83;100.00;58908.13;3456592;28;19930;-47
2021/06/01 05:47:06;;;;;;;;;;;;;;;-145.83;100.00;58908.13;3454662;28;20378;-48
2021/06/01 05:48:47;;;;;;;;;;;;;;;-145.83;100.00;58908.13;3457583;28;19930;-46
2021/06/01 05:50:28;;;;;;;;;;;;;;;-145.83;100.00;58908.13;3453138;28;19929;-46
2021/06/01 05:52:11;;;;;;;;;;;;;;;-145.83;100.00;58908.13;3454639;28;19965;-47
2021/06/01 05:53:52;;;;;;;;;;;;;;;-145.83;100.00;58908.13;3455840;28;19930;-45
2021/06/01 05:55:36;;;;;;;;;;;;;;;-145.83;100.00;58908.13;3453319;28;19929;-45
2021/06/01 05:57:17;;;;;;;;;;;;;;;-145.83;100.00;58908.13;3456296;28;19976;-47
2021/06/01 05:58:58;;;;;;;;;;;;;;;-145.83;100.00;58908.13;3455304;28;20306;-46
2021/06/01 06:00:40;;;;;;;;;;;;;;;-145.83;100.00;58908.13;3457140;28;19929;-47
2021/06/01 06:02:21;;;;;;;;;;;;;;;-145.83;100.00;58908.13;3454201;28;20378;-46
2021/06/01 06:04:02;;;;;;;;;;;;;;;-145.83;100.00;58908.13;3454763;28;20417;-46
2021/06/01 06:05:44;;;;;;;;;;;;;;;-145.83;100.00;58908.13;3455704;28;19921;-46
2021/06/01 06:07:25;;;;;;;;;;;;;;;-145.83;100.00;58908.13;3452498;28;20017;-47
2021/06/01 06:09:06;;;;;;;;;;;;;;;-145.83;100.00;58908.13;3456073;28;20021;-45
2021/06/01 06:10:49;;;;;;;;;;;;;;;-145.83;100.00;58908.13;3453733;28;19976;-47
2021/06/01 06:12:30;;;;;;;;;;;;;;;-145.83;100.00;58908.13;3456844;28;19929;-46
2021/06/01 06:14:11;;;;;;;;;;;;;;;-145.83;100.00;58908.13;3451832;28;19936;-46
2021/06/01 06:15:52;;;;;;;;;;;;;;;-145.83;100.00;58908.13;3454870;28;19984;-48
2021/06/01 06:17:39;;;;;;;;;;;;;;;-145.83;100.00;58908.13;3454871;28;20406;-47
2021/06/01 06:19:21;;;;;;;;;;;;;;;-145.83;100.00;58908.13;3453488;28;19973;-46
2021/06/01 06:21:03;;;;;;;;;;;;;;;-145.83;100.00;58908.13;3457416;28;19929;-48
2021/06/01 06:22:46;;;;;;;;;;;;;;;-145.83;100.00;58908.13;3451716;28;19980;-47
2021/06/01 06:24:30;;;;;;;;;;;;;;;-145.83;100.00;58908.13;3456482;28;19929;-46
2021/06/01 06:26:11;;;;;;;;;;;;;;;-145.83;100.00;58908.13;3453094;28;19972;-47
2021/06/01 06:27:55;;;;;;;;;;;;;;;-145.83;100.00;58908.13;3454144;28;19929;-46
2021/06/01 06:29:36;;;;;;;;;;;;;;;-145.83;100.00;58908.13;3455480;28;19929;-46
2021/06/01 06:31:18;;;;;;;;;;;;;;;-145.83;100.00;58908.13;3454473;28;19936;-47
2021/06/01 06:33:00;;;;;;;;;;;;;;;-145.83;100.00;58908.13;3457133;28;19933;-46
2021/06/01 06:34:41;;;;;;;;;;;;;;;-145.83;100.00;58908.13;3454125;28;19945;-46
2021/06/01 06:36:22;;;;;;;;;;;;;;;-145.83;100.00;58908.13;3455508;28;20422;-47
2021/06/01 06:38:04;;;;;;;;;;;;;;;-145.83;100.00;58908.13;3454354;28;20354;-47
2021/06/01 06:39:45;;;;;;;;;;;;;;;-145.83;100.00;58908.13;3453217;28;19929;-47
2021/06/01 06:41:27;;;;;;;;;;;;;;;-145.83;100.00;58908.13;3455861;28;20418;-48
2021/06/01 06:43:08;;;;;;;;;;;;;;;-145.83;100.00;58908.13;3453682;28;19936;-47
2021/06/01 06:44:51;;;;;;;;;;;;;;;-145.83;100.00;58908.13;3457010;28;20421;-47
2021/06/01 06:47:02;;;;;;;;;;;;;;;-145.83;100.00;58908.13;3454454;28;20019;-47
2021/06/01 06:48:44;;;;;;;;;;;;;;;-145.83;100.00;58908.13;3454239;28;19956;-48
2021/06/01 06:50:26;;;;;;;;;;;;;;;-145.83;100.00;58908.13;3456365;28;19929;-46
2021/06/01 06:52:08;;;;;;;;;;;;;;;-145.83;100.00;58908.13;3452723;28;19972;-46
2021/06/01 06:53:51;;;;;;;;;;;;;;;-145.83;100.00;58908.13;3456493;28;19936;-47
2021/06/01 06:55:33;;;;;;;;;;;;;;;-145.83;100.00;58908.13;3453858;28;20413;-48
2021/06/01 06:57:16;;;;;;;;;;;;;;;-145.83;100.00;58908.13;3454663;28;19929;-47
2021/06/01 06:59:01;;;;;;;;;;;;;;;-145.83;100.00;58908.13;3455559;28;19929;-47
2021/06/01 07:00:42;;;;;;;;;;;;;;;-145.83;100.00;58908.13;3453710;28;19937;-46
2021/06/01 07:02:24;;;;;;;;;;;;;;;-145.83;100.00;58908.13;3454939;28;19936;-47
2021/06/01 07:04:05;;;;;;;;;;;;;;;-145.83;100.00;58908.13;3452981;28;19933;-47
2021/06/01 07:05:46;;;;;;;;;;;;;;;-145.83;100.00;58908.13;3458080;28;19929;-47
2021/06/01 07:07:28;;;;;;;;;;;;;;;-145.83;100.00;58908.13;3455344;28;19930;-46
2021/06/01 07:09:09;;;;;;;;;;;;;;;-145.83;100.00;58908.13;3458356;28;19933;-46
2021/06/01 07:10:50;;;;;;;;;;;;;;;-145.83;100.00;58908.13;3455662;28;19920;-46
2021/06/01 07:12:32;;;;;;;;;;;;;;;-145.83;100.00;58908.13;3456648;28;19929;-47
2021/06/01 07:14:26;;;;;;;;;;;;;;;-145.83;100.00;58908.13;3457207;28;20395;-46
2021/06/01 07:16:08;;;;;;;;;;;;;;;-145.83;100.00;58908.13;3454057;28;19953;-48
2021/06/01 07:17:52;;;;;;;;;;;;;;;-145.83;100.00;58908.13;3458496;28;19933;-46
2021/06/01 07:19:34;;;;;;;;;;;;;;;-145.83;100.00;58908.13;3453952;28;20008;-46
2021/06/01 07:21:15;;;;;;;;;;;;;;;-145.83;100.00;58908.13;3457108;28;19937;-47
2021/06/01 07:22:56;;;;;;;;;;;;;;;-145.83;100.00;58908.13;3451960;28;19930;-47
2021/06/01 07:24:37;;;;;;;;;;;;;;;-145.83;100.00;58908.13;3448540;28;20028;-49
2021/06/01 07:26:19;;;;;;;;;;;;;;;-145.83;100.00;58908.13;3458376;28;20414;-47
2021/06/01 07:28:01;;;;;;;;;;;;;;;-145.83;100.00;58908.13;3454888;28;19933;-48
2021/06/01 07:29:45;;;;;;;;;;;;;;;-145.83;100.00;58908.13;3458739;28;19975;-49
2021/06/01 07:31:26;;;;;;;;;;;;;;;-145.83;100.00;58908.13;3455261;28;19929;-47
2021/06/01 07:33:07;;;;;;;;;;;;;;;-145.83;100.00;58908.13;3456144;28;19979;-47
2021/06/01 07:34:49;;;;;;;;;;;;;;;-145.83;100.00;58908.13;3457482;28;20056;-46
2021/06/01 07:36:30;;;;;;;;;;;;;;;-145.83;100.00;58908.13;3454847;28;19973;-46
2021/06/01 07:38:12;;;;;;;;;;;;;;;-145.83;100.00;58908.13;3457836;28;19933;-46
2021/06/01 07:39:54;;;;;;;;;;;;;;;-145.83;100.00;58908.13;3455171;28;20362;-46
2021/06/01 07:41:35;;;;;;;;;;;;;;;-145.83;100.00;58908.13;3458055;28;20310;-46
2021/06/01 07:43:17;;;;;;;;;;;;;;;-145.83;100.00;58908.13;3454720;28;20167;-46
2021/06/01 07:44:58;;;;;;;;;;;;;;;-145.83;100.00;58908.13;3454248;28;19965;-45
2021/06/01 07:46:39;;;;;;;;;;;;;;;-145.83;100.00;58908.13;3457271;28;19929;-46
2021/06/01 07:48:21;;;;;;;;;;;;;;;-145.83;100.00;58908.13;3455374;28;19929;-45
2021/06/01 07:50:02;;;;;;;;;;;;;;;-145.83;100.00;58908.13;3457164;28;19929;-45
2021/06/01 07:51:44;;;;;;;;;;;;;;;-145.83;100.00;58908.13;3453880;28;19940;-46
2021/06/01 07:53:27;;;;;;;;;;;;;;;-145.83;100.00;58908.13;3457688;28;20023;-49
2021/06/01 07:55:09;;;;;;;;;;;;;;;-145.83;100.00;58908.13;3455691;28;19977;-46
2021/06/01 07:56:50;;;;;;;;;;;;;;;-145.83;100.00;58908.13;3455301;28;20378;-45
2021/06/01 07:58:32;;;;;;;;;;;;;;;-145.83;100.00;58908.13;3457203;28;20386;-46
2021/06/01 08:00:15;;;;;;;;;;;;;;;-145.83;100.00;58908.13;3453972;28;20033;-46
2021/06/01 08:01:56;;;;;;;;;;;;;;;-145.83;100.00;58908.13;3443882;28;19973;-45
2021/06/01 08:03:37;;;;;;;;;;;;;;;-145.83;100.00;58908.13;3451708;28;20362;-45
2021/06/01 08:05:20;;;;;;;;;;;;;;;-145.83;100.00;58908.13;3457648;28;19992;-46
2021/06/01 08:07:04;;;;;;;;;;;;;;;-145.83;100.00;58908.13;3455102;28;20009;-45
2021/06/01 08:08:46;;;;;;;;;;;;;;;-145.83;100.00;58908.13;3454240;28;19929;-46
2021/06/01 08:10:28;;;;;;;;;;;;;;;-145.83;100.00;58908.13;3457134;28;19936;-47
2021/06/01 08:12:09;;;;;;;;;;;;;;;-145.83;100.00;58908.13;3453389;28;19929;-49
2021/06/01 08:13:51;;;;;;;;;;;;;;;-145.83;100.00;58908.13;3456706;28;20024;-47
2021/06/01 08:15:33;;;;;;;;;;;;;;;-145.83;100.00;58908.13;3454170;28;19929;-46
2021/06/01 08:17:14;;;;;;;;;;;;;;;-145.83;100.00;58908.13;3456230;28;20012;-45
2021/06/01 08:19:03;;;;;;;;;;;;;;;-145.83;100.00;58908.13;3450157;28;19953;-48
2021/06/01 08:20:54;;;;;;;;;;;;;;;-145.83;100.00;58908.13;3446954;28;19973;-44
2021/06/01 08:22:35;;;;;;;;;;;;;;;-145.83;100.00;58908.13;3456735;28;19929;-46
2021/06/01 08:24:17;;;;;;;;;;;;;;;-145.83;100.00;58908.13;3454489;28;19929;-45
2021/06/01 08:25:58;;;;;;;;;;;;;;;-145.83;100.00;58908.13;3457506;28;19936;-46
2021/06/01 08:27:39;;;;;;;;;;;;;;;-145.83;100.00;58908.13;3455565;28;19980;-44
2021/06/01 08:29:21;;;;;;;;;;;;;;;-145.83;100.00;58908.13;3454583;28;19996;-49
2021/06/01 08:31:03;;;;;;;;;;;;;;;-145.83;100.00;58908.13;3457378;28;19937;-47
2021/06/01 08:32:44;;;;;;;;;;;;;;;-145.83;100.00;58908.13;3455370;28;19929;-46
2021/06/01 08:34:26;;;;;;;;;;;;;;;-145.83;100.00;58908.13;3456814;28;20324;-46
2021/06/01 08:36:07;;;;;;;;;;;;;;;-145.83;100.00;58908.13;3454966;28;19933;-45